createdAt,value
2019-02-02T00:00:56.133Z,10.38
2019-02-02T00:03:26.134Z,10.35
2019-02-02T00:05:55.135Z,10.72
2019-02-02T00:08:23.904Z,10.30
2019-02-02T00:10:52.922Z,9.83
2019-02-02T00:13:22.040Z,8.83
2019-02-02T00:15:50.894Z,9.98
2019-02-02T00:18:19.774Z,10.10
2019-02-02T00:20:48.891Z,9.05
2019-02-02T00:23:17.758Z,10.13
2019-02-02T00:25:46.653Z,9.53
2019-02-02T00:28:15.654Z,10.25
2019-02-02T00:30:44.554Z,9.78
2019-02-02T00:33:13.533Z,11.30
2019-02-02T00:35:42.436Z,10.10
2019-02-02T00:38:11.414Z,10.43
2019-02-02T00:40:40.314Z,10.15
2019-02-02T00:43:09.407Z,9.50
2019-02-02T00:45:38.294Z,10.35
2019-02-02T00:48:08.315Z,11.15
2019-02-02T00:50:37.414Z,10.68
2019-02-02T00:53:06.287Z,10.98
2019-02-02T00:55:35.295Z,10.55
2019-02-02T00:58:04.493Z,10.53
2019-02-02T01:00:33.395Z,10.23
2019-02-02T01:03:02.273Z,9.55
2019-02-02T01:05:31.374Z,9.03
2019-02-02T01:08:00.254Z,8.85
2019-02-02T01:10:35.388Z,8.98
2019-02-02T01:13:04.594Z,9.08
2019-02-02T01:15:33.473Z,9.88
2019-02-02T01:18:02.730Z,9.83
2019-02-02T01:20:31.430Z,10.58
2019-02-02T01:23:01.760Z,9.38
2019-02-02T01:25:30.873Z,10.08
2019-02-02T01:28:05.267Z,10.43
2019-02-02T01:30:30.439Z,10.15
2019-02-02T01:32:59.663Z,8.85
2019-02-02T01:35:28.713Z,9.28
2019-02-02T01:38:06.957Z,9.68
2019-02-02T01:40:35.796Z,10.70
2019-02-02T01:43:05.814Z,10.93
2019-02-02T01:45:34.796Z,10.50
2019-02-02T01:48:03.581Z,10.10
2019-02-02T01:50:32.468Z,9.63
2019-02-02T01:53:01.576Z,11.75
2019-02-02T01:55:30.466Z,9.00
2019-02-02T01:57:59.270Z,9.25
2019-02-02T02:00:32.854Z,10.35
2019-02-02T02:03:01.632Z,11.08
2019-02-02T02:05:30.531Z,10.13
2019-02-02T02:07:59.816Z,11.95
2019-02-02T02:10:28.611Z,9.88
2019-02-02T02:12:57.511Z,11.97
2019-02-02T02:15:26.512Z,11.30
2019-02-02T02:17:55.401Z,11.38
2019-02-02T02:20:24.543Z,11.75
2019-02-02T02:22:53.791Z,10.38
2019-02-02T02:25:22.581Z,11.93
2019-02-02T02:27:51.471Z,11.28
2019-02-02T02:30:24.451Z,11.22
2019-02-02T02:32:53.656Z,10.63
2019-02-02T02:35:22.537Z,12.28
2019-02-02T02:37:51.655Z,15.45
2019-02-02T02:40:22.029Z,11.88
2019-02-02T02:42:51.067Z,11.43
2019-02-02T02:45:20.066Z,10.93
2019-02-02T02:47:48.890Z,13.32
2019-02-02T02:50:21.576Z,10.50
2019-02-02T02:52:50.521Z,10.48
2019-02-02T02:55:20.326Z,11.48
2019-02-02T02:57:49.101Z,10.93
2019-02-02T03:00:26.955Z,10.48
2019-02-02T03:02:55.806Z,12.60
2019-02-02T03:05:24.896Z,11.68
2019-02-02T03:07:54.606Z,11.73
2019-02-02T03:10:26.808Z,11.83
2019-02-02T03:12:55.838Z,11.38
2019-02-02T03:15:24.974Z,12.28
2019-02-02T03:17:53.873Z,11.60
2019-02-02T03:20:22.752Z,12.13
2019-02-02T03:22:51.841Z,11.78
2019-02-02T03:25:27.492Z,12.07
2019-02-02T03:27:56.694Z,12.07
2019-02-02T03:30:25.606Z,12.13
2019-02-02T03:32:54.573Z,12.58
2019-02-02T03:35:24.326Z,12.18
2019-02-02T03:37:53.186Z,11.35
2019-02-02T03:40:23.347Z,11.60
2019-02-02T03:42:52.391Z,12.82
2019-02-02T03:45:25.886Z,12.10
2019-02-02T03:47:54.976Z,12.75
2019-02-02T03:50:23.770Z,12.65
2019-02-02T03:52:52.664Z,12.63
2019-02-02T03:55:21.450Z,13.18
2019-02-02T03:57:50.226Z,13.25
2019-02-02T04:00:20.766Z,13.30
2019-02-02T04:02:49.656Z,13.05
2019-02-02T04:05:20.609Z,13.28
2019-02-02T04:07:49.587Z,12.75
2019-02-02T04:10:18.380Z,14.00
2019-02-02T04:12:47.271Z,12.73
2019-02-02T04:15:17.719Z,16.65
2019-02-02T04:17:47.706Z,13.78
2019-02-02T04:20:18.778Z,12.65
2019-02-02T04:22:48.974Z,13.70
2019-02-02T04:25:20.128Z,12.63
2019-02-02T04:27:49.311Z,15.98
2019-02-02T04:30:21.172Z,12.37
2019-02-02T04:32:50.141Z,14.05
2019-02-02T04:35:19.841Z,14.78
2019-02-02T04:37:51.121Z,14.85
2019-02-02T04:40:20.012Z,14.05
2019-02-02T04:42:49.001Z,13.10
2019-02-02T04:45:18.406Z,14.13
2019-02-02T04:47:47.169Z,13.30
2019-02-02T04:50:20.826Z,13.40
2019-02-02T04:52:49.676Z,15.98
2019-02-02T04:55:19.486Z,15.60
2019-02-02T04:57:48.690Z,14.78
2019-02-02T05:00:23.004Z,15.68
2019-02-02T05:02:52.123Z,17.42
2019-02-02T05:05:20.888Z,16.02
2019-02-02T05:07:49.803Z,14.33
2019-02-02T05:10:20.896Z,13.93
2019-02-02T05:12:49.756Z,13.93
2019-02-02T05:15:18.601Z,16.90
2019-02-02T05:17:47.496Z,13.05
2019-02-02T05:20:17.901Z,17.77
2019-02-02T05:22:46.601Z,14.30
2019-02-02T05:25:15.601Z,13.00
2019-02-02T05:27:44.385Z,14.58
2019-02-02T05:30:18.511Z,15.48
2019-02-02T05:32:47.191Z,14.95
2019-02-02T05:35:15.872Z,14.98
2019-02-02T05:37:44.771Z,15.63
2019-02-02T05:40:18.824Z,14.45
2019-02-02T05:42:47.568Z,19.02
2019-02-02T05:45:17.977Z,13.78
2019-02-02T05:47:46.871Z,15.45
2019-02-02T05:50:20.598Z,14.58
2019-02-02T05:52:49.471Z,15.88
2019-02-02T05:55:19.736Z,14.45
2019-02-02T05:57:48.710Z,13.53
2019-02-02T06:00:34.172Z,12.60
2019-02-02T06:03:03.070Z,14.40
2019-02-02T06:05:31.854Z,13.10
2019-02-02T06:08:00.607Z,15.38
2019-02-02T06:10:29.317Z,13.80
2019-02-02T06:12:58.108Z,14.73
2019-02-02T06:15:28.795Z,14.00
2019-02-02T06:17:57.536Z,14.60
2019-02-02T06:20:26.445Z,14.28
2019-02-02T06:22:55.102Z,15.65
2019-02-02T06:25:23.900Z,16.57
2019-02-02T06:27:52.782Z,14.03
2019-02-02T06:30:23.451Z,15.20
2019-02-02T06:32:52.201Z,14.45
2019-02-02T06:35:20.882Z,13.58
2019-02-02T06:37:49.771Z,13.25
2019-02-02T06:40:18.674Z,13.45
2019-02-02T06:42:47.667Z,12.37
2019-02-02T06:45:22.603Z,13.75
2019-02-02T06:47:51.496Z,13.13
2019-02-02T06:50:20.382Z,13.10
2019-02-02T06:52:49.472Z,11.65
2019-02-02T06:55:18.461Z,13.43
2019-02-02T06:57:47.351Z,15.80
2019-02-02T07:00:18.376Z,14.95
2019-02-02T07:02:47.181Z,13.30
2019-02-02T07:05:16.072Z,13.90
2019-02-02T07:07:45.071Z,15.65
2019-02-02T07:10:18.961Z,15.38
2019-02-02T07:12:47.861Z,14.78
2019-02-02T07:15:18.988Z,16.32
2019-02-02T07:17:47.801Z,14.93
2019-02-02T07:20:16.571Z,12.88
2019-02-02T07:22:45.686Z,15.60
2019-02-02T07:25:14.461Z,15.80
2019-02-02T07:27:43.363Z,12.75
2019-02-02T07:30:14.711Z,12.18
2019-02-02T07:32:43.705Z,16.30
2019-02-02T07:35:13.307Z,15.88
2019-02-02T07:37:42.300Z,14.83
2019-02-02T07:40:13.173Z,13.28
2019-02-02T07:42:41.921Z,13.58
2019-02-02T07:45:13.466Z,13.18
2019-02-02T07:47:42.480Z,14.00
2019-02-02T07:50:14.031Z,13.95
2019-02-02T07:52:43.314Z,14.60
2019-02-02T07:55:20.103Z,14.47
2019-02-02T07:57:49.096Z,13.80
2019-02-02T08:00:20.847Z,14.85
2019-02-02T08:02:49.759Z,15.00
2019-02-02T08:05:18.731Z,14.28
2019-02-02T08:07:47.416Z,15.88
2019-02-02T08:10:16.198Z,15.25
2019-02-02T08:12:45.201Z,15.30
2019-02-02T08:15:19.923Z,13.32
2019-02-02T08:17:48.927Z,15.18
2019-02-02T08:20:17.697Z,14.07
2019-02-02T08:22:46.597Z,13.32
2019-02-02T08:25:16.218Z,14.43
2019-02-02T08:27:45.098Z,14.75
2019-02-02T08:30:22.386Z,15.70
2019-02-02T08:32:51.178Z,15.32
2019-02-02T08:35:19.956Z,15.93
2019-02-02T08:37:48.741Z,17.73
2019-02-02T08:40:19.064Z,15.72
2019-02-02T08:42:48.167Z,18.77
2019-02-02T08:45:17.156Z,14.47
2019-02-02T08:47:45.945Z,15.75
2019-02-02T08:50:23.751Z,13.93
2019-02-02T08:52:52.532Z,13.93
2019-02-02T08:55:21.314Z,15.20
2019-02-02T08:57:50.115Z,15.83
2019-02-02T09:00:20.078Z,15.60
2019-02-02T09:02:48.972Z,14.30
2019-02-02T09:05:24.324Z,17.15
2019-02-02T09:07:53.208Z,17.27
2019-02-02T09:10:25.096Z,16.90
2019-02-02T09:12:53.946Z,15.68
2019-02-02T09:15:22.837Z,14.53
2019-02-02T09:17:51.739Z,15.28
2019-02-02T09:20:20.756Z,16.70
2019-02-02T09:22:49.553Z,14.83
2019-02-02T09:25:19.256Z,16.42
2019-02-02T09:27:48.157Z,14.33
2019-02-02T09:30:20.032Z,14.68
2019-02-02T09:32:48.791Z,15.35
2019-02-02T09:35:17.887Z,13.45
2019-02-02T09:37:46.724Z,14.50
2019-02-02T09:40:17.484Z,13.85
2019-02-02T09:42:46.407Z,15.68
2019-02-02T09:45:22.871Z,13.60
2019-02-02T09:47:53.013Z,14.60
2019-02-02T09:50:23.352Z,14.23
2019-02-02T09:52:56.387Z,13.98
2019-02-02T09:55:25.921Z,15.13
2019-02-02T09:57:59.042Z,15.08
2019-02-02T10:00:32.178Z,14.60
2019-02-02T10:03:01.082Z,14.87
2019-02-02T10:05:30.762Z,15.03
2019-02-02T10:07:59.701Z,17.75
2019-02-02T10:10:33.313Z,16.73
2019-02-02T10:13:02.103Z,14.65
2019-02-02T10:15:31.184Z,15.10
2019-02-02T10:18:02.311Z,15.78
2019-02-02T10:20:32.159Z,16.37
2019-02-02T10:23:02.373Z,15.30
2019-02-02T10:25:32.050Z,14.68
2019-02-02T10:28:00.942Z,15.88
2019-02-02T10:30:35.361Z,13.85
2019-02-02T10:33:04.156Z,13.55
2019-02-02T10:35:36.134Z,11.70
2019-02-02T10:38:05.312Z,16.07
2019-02-02T10:40:34.208Z,13.60
2019-02-02T10:43:03.092Z,17.90
2019-02-02T10:45:32.082Z,14.10
2019-02-02T10:48:00.863Z,17.77
2019-02-02T10:50:31.191Z,14.00
2019-02-02T10:53:00.181Z,14.05
2019-02-02T10:55:28.984Z,15.13
2019-02-02T10:57:57.766Z,18.82
2019-02-02T11:00:32.306Z,14.60
2019-02-02T11:03:02.605Z,14.65
2019-02-02T11:05:31.539Z,16.00
2019-02-02T11:08:00.728Z,14.05
2019-02-02T11:13:21.723Z,15.63
2019-02-02T11:15:52.105Z,15.90
2019-02-02T11:18:21.126Z,14.10
2019-02-02T11:20:54.231Z,15.10
2019-02-02T11:23:24.819Z,13.88
2019-02-02T11:25:54.470Z,16.48
2019-02-02T11:28:23.814Z,14.33
2019-02-02T11:30:53.286Z,14.10
2019-02-02T11:33:22.118Z,12.65
2019-02-02T11:35:51.075Z,15.83
2019-02-02T11:38:19.967Z,13.15
2019-02-02T11:40:48.848Z,14.15
2019-02-02T11:43:17.846Z,13.35
2019-02-02T11:45:46.753Z,15.25
2019-02-02T11:48:16.641Z,14.65
2019-02-02T11:50:45.541Z,15.68
2019-02-02T11:53:15.862Z,14.87
2019-02-02T11:55:51.111Z,15.10
2019-02-02T11:58:20.001Z,14.75
2019-02-02T12:00:48.891Z,14.55
2019-02-02T12:03:17.883Z,14.23
2019-02-02T12:05:46.671Z,14.60
2019-02-02T12:08:15.447Z,13.98
2019-02-02T12:10:44.341Z,12.43
2019-02-02T12:13:13.249Z,13.32
2019-02-02T12:15:42.121Z,12.88
2019-02-02T12:18:11.967Z,16.52
2019-02-02T12:20:41.037Z,14.60
2019-02-02T12:23:09.926Z,15.43
2019-02-02T12:25:39.017Z,17.65
2019-02-02T12:28:09.328Z,15.72
2019-02-02T12:30:38.544Z,17.02
2019-02-02T12:33:07.434Z,14.40
2019-02-02T12:35:36.316Z,14.95
2019-02-02T12:38:05.316Z,15.40
2019-02-02T12:40:34.302Z,16.40
2019-02-02T12:43:03.198Z,17.15
2019-02-02T12:45:35.057Z,13.98
2019-02-02T12:48:08.452Z,15.70
2019-02-02T12:50:37.342Z,13.50
2019-02-02T12:53:06.231Z,14.98
2019-02-02T12:55:35.221Z,16.07
2019-02-02T12:58:04.621Z,13.95
2019-02-02T13:00:33.521Z,15.20
2019-02-02T13:03:02.525Z,14.05
2019-02-02T13:05:32.941Z,15.20
2019-02-02T13:08:05.106Z,18.15
2019-02-02T13:10:33.586Z,15.05
2019-02-02T13:13:27.856Z,16.07
2019-02-02T13:15:56.466Z,15.55
2019-02-02T13:18:25.056Z,15.65
2019-02-02T13:20:53.697Z,17.27
2019-02-02T13:23:22.371Z,18.57
2019-02-02T13:25:51.072Z,14.75
2019-02-02T13:28:19.896Z,17.37
2019-02-02T13:30:48.581Z,17.42
2019-02-02T13:33:17.271Z,17.70
2019-02-02T13:35:46.082Z,15.90
2019-02-02T13:38:15.174Z,18.10
2019-02-02T13:40:43.872Z,16.07
2019-02-02T13:43:18.481Z,15.63
2019-02-02T13:45:47.363Z,18.45
2019-02-02T13:48:19.051Z,17.12
2019-02-02T13:50:47.922Z,19.85
2019-02-02T13:53:16.491Z,19.32
2019-02-02T13:55:45.121Z,18.12
2019-02-02T13:58:13.831Z,18.92
2019-02-02T14:00:42.536Z,20.75
2019-02-02T14:03:11.136Z,18.23
2019-02-02T14:05:39.926Z,16.05
2019-02-02T14:08:08.616Z,18.17
2019-02-02T14:10:37.306Z,17.30
2019-02-02T14:13:06.006Z,16.50
2019-02-02T14:15:34.678Z,16.60
2019-02-02T14:18:03.288Z,15.93
2019-02-02T14:20:32.036Z,15.28
2019-02-02T14:23:00.651Z,15.98
2019-02-02T14:25:30.629Z,14.90
2019-02-02T14:27:59.741Z,15.90
2019-02-02T14:30:28.296Z,19.82
2019-02-02T14:32:56.984Z,14.33
2019-02-02T14:35:27.456Z,13.70
2019-02-02T14:37:56.131Z,14.47
2019-02-02T14:40:25.102Z,14.65
2019-02-02T14:42:54.257Z,14.35
2019-02-02T14:45:28.069Z,15.43
2019-02-02T14:47:56.772Z,14.10
2019-02-02T14:50:25.621Z,14.95
2019-02-02T14:52:54.491Z,16.25
2019-02-02T14:55:25.873Z,14.40
2019-02-02T14:57:54.563Z,15.90
2019-02-02T15:00:25.249Z,16.60
2019-02-02T15:02:53.994Z,15.48
2019-02-02T15:05:22.818Z,15.75
2019-02-02T15:07:51.526Z,14.65
2019-02-02T15:10:21.107Z,14.93
2019-02-02T15:12:49.923Z,15.45
2019-02-02T15:15:18.694Z,14.95
2019-02-02T15:17:47.397Z,15.75
2019-02-02T15:20:24.132Z,14.00
2019-02-02T15:22:52.828Z,14.50
2019-02-02T15:25:21.406Z,15.45
2019-02-02T15:27:50.192Z,15.78
2019-02-02T15:30:23.876Z,16.62
2019-02-02T15:32:52.559Z,15.20
2019-02-02T15:35:21.383Z,17.60
2019-02-02T15:37:50.002Z,25.77
2019-02-02T15:40:19.384Z,17.35
2019-02-02T15:42:48.175Z,18.70
2019-02-02T15:45:25.417Z,19.02
2019-02-02T15:47:54.161Z,17.12
2019-02-02T15:50:22.791Z,19.35
2019-02-02T15:52:51.461Z,18.07
2019-02-02T15:55:24.751Z,17.80
2019-02-02T15:57:53.432Z,18.62
2019-02-02T16:00:24.241Z,17.77
2019-02-02T16:02:52.933Z,15.55
2019-02-02T16:05:21.926Z,16.05
2019-02-02T16:07:50.594Z,16.17
2019-02-02T16:10:25.219Z,16.05
2019-02-02T16:12:53.817Z,15.32
2019-02-02T16:15:22.486Z,13.80
2019-02-02T16:17:51.402Z,17.17
2019-02-02T16:20:25.111Z,15.18
2019-02-02T16:22:53.807Z,15.03
2019-02-02T16:25:22.531Z,19.82
2019-02-02T16:27:51.207Z,15.68
2019-02-02T16:30:24.651Z,19.02
2019-02-02T16:32:53.301Z,18.27
2019-02-02T16:35:21.991Z,15.15
2019-02-02T16:37:50.603Z,16.70
2019-02-02T16:40:21.787Z,17.65
2019-02-02T16:42:53.328Z,19.37
2019-02-02T16:45:22.930Z,18.60
2019-02-02T16:47:51.827Z,17.05
2019-02-02T16:50:20.491Z,16.07
2019-02-02T16:52:49.181Z,16.80
2019-02-02T16:55:21.081Z,16.40
2019-02-02T17:00:25.675Z,17.30
2019-02-02T17:02:54.337Z,23.10
2019-02-02T17:05:22.934Z,18.92
2019-02-02T17:07:51.866Z,17.25
2019-02-02T17:10:28.117Z,19.20
2019-02-02T17:12:56.876Z,16.73
2019-02-02T17:15:25.598Z,16.97
2019-02-02T17:17:54.299Z,16.30
2019-02-02T17:20:26.197Z,16.15
2019-02-02T17:22:54.814Z,16.85
2019-02-02T17:25:23.440Z,15.45
2019-02-02T17:27:52.301Z,15.98
2019-02-02T17:30:25.234Z,14.10
2019-02-02T17:32:56.363Z,16.37
2019-02-02T17:35:24.980Z,15.38
2019-02-02T17:37:53.668Z,20.35
2019-02-02T17:40:24.954Z,15.30
2019-02-02T17:42:53.660Z,13.68
2019-02-02T17:45:23.200Z,16.17
2019-02-02T17:47:52.041Z,13.43
2019-02-02T17:50:22.154Z,15.48
2019-02-02T17:52:50.995Z,15.88
2019-02-02T17:55:19.821Z,15.38
2019-02-02T17:57:48.526Z,15.00
2019-02-02T18:00:20.975Z,16.25
2019-02-02T18:02:49.711Z,14.93
2019-02-02T18:05:18.704Z,13.45
2019-02-02T18:07:47.383Z,12.03
2019-02-02T18:10:17.246Z,13.75
2019-02-02T18:12:45.875Z,13.43
2019-02-02T18:15:15.691Z,14.15
2019-02-02T18:17:44.546Z,15.08
2019-02-02T18:20:16.490Z,14.58
2019-02-02T18:22:45.206Z,16.27
2019-02-02T18:25:16.216Z,16.80
2019-02-02T18:27:44.900Z,18.42
2019-02-02T18:30:25.192Z,16.52
2019-02-02T18:32:53.899Z,16.95
2019-02-02T18:35:22.638Z,17.40
2019-02-02T18:37:51.480Z,17.95
2019-02-02T18:40:22.080Z,21.75
2019-02-02T18:42:50.788Z,14.58
2019-02-02T18:45:21.680Z,17.73
2019-02-02T18:47:50.315Z,17.35
2019-02-02T18:50:19.014Z,16.60
2019-02-02T18:52:49.460Z,16.77
2019-02-02T18:55:27.000Z,17.25
2019-02-02T18:57:55.768Z,16.48
2019-02-02T19:00:24.457Z,20.25
2019-02-02T19:02:53.167Z,17.57
2019-02-02T19:05:21.942Z,16.65
2019-02-02T19:07:50.566Z,19.25
2019-02-02T19:10:22.335Z,16.10
2019-02-02T19:12:51.152Z,16.97
2019-02-02T19:15:19.855Z,19.20
2019-02-02T19:17:50.095Z,20.00
2019-02-02T19:20:21.418Z,21.45
2019-02-02T19:22:50.206Z,21.77
2019-02-02T19:25:18.945Z,19.70
2019-02-02T19:27:47.909Z,17.77
2019-02-02T19:30:28.562Z,17.87
2019-02-02T19:32:57.322Z,19.55
2019-02-02T19:35:26.683Z,18.32
2019-02-02T19:37:55.290Z,20.25
2019-02-02T19:40:24.010Z,19.00
2019-02-02T19:42:52.690Z,19.02
2019-02-02T19:45:26.547Z,18.40
2019-02-02T19:47:55.393Z,24.92
2019-02-02T19:50:28.501Z,18.30
2019-02-02T19:52:57.312Z,19.52
2019-02-02T19:55:26.105Z,19.35
2019-02-02T19:57:54.871Z,19.60
2019-02-02T20:00:28.865Z,17.98
2019-02-02T20:02:57.838Z,18.00
2019-02-02T20:05:29.067Z,21.85
2019-02-02T20:07:56.824Z,18.55
2019-02-02T20:10:25.585Z,17.95
2019-02-02T20:12:54.266Z,19.35
2019-02-02T20:15:27.455Z,17.70
2019-02-02T20:18:08.654Z,19.12
2019-02-02T20:20:28.404Z,19.75
2019-02-02T20:22:57.360Z,20.85
2019-02-02T20:25:26.171Z,21.48
2019-02-02T20:27:54.946Z,17.82
2019-02-02T20:30:31.119Z,20.77
2019-02-02T20:32:59.827Z,19.27
2019-02-02T20:35:39.780Z,17.73
2019-02-02T20:37:59.307Z,17.15
2019-02-02T20:40:28.222Z,16.42
2019-02-02T20:42:56.922Z,17.40
2019-02-02T20:45:28.150Z,18.20
2019-02-02T20:47:56.852Z,17.50
2019-02-02T20:50:25.529Z,18.15
2019-02-02T20:52:54.421Z,18.42
2019-02-02T20:55:29.084Z,19.80
2019-02-02T20:58:03.755Z,20.05
2019-02-02T21:00:32.363Z,18.30
2019-02-02T21:03:01.147Z,17.05
2019-02-02T21:05:31.873Z,17.07
2019-02-02T21:08:00.190Z,18.98
2019-02-02T21:10:29.037Z,17.82
2019-02-02T21:12:57.745Z,19.77
2019-02-02T21:15:26.413Z,20.12
2019-02-02T21:17:55.291Z,18.92
2019-02-02T21:20:29.246Z,19.52
2019-02-02T21:22:59.848Z,22.35
2019-02-02T21:25:28.614Z,18.45
2019-02-02T21:27:57.306Z,15.88
2019-02-02T21:30:29.257Z,16.62
2019-02-02T21:32:57.841Z,18.00
2019-02-02T21:35:26.564Z,14.47
2019-02-02T21:37:55.414Z,17.42
2019-02-02T21:40:26.789Z,16.50
2019-02-02T21:42:55.518Z,16.48
2019-02-02T21:45:24.347Z,19.12
2019-02-02T21:47:53.603Z,17.75
2019-02-02T21:50:41.670Z,14.33
2019-02-02T21:53:10.539Z,15.55
2019-02-02T21:55:39.230Z,16.82
2019-02-02T21:58:08.450Z,16.77
2019-02-02T22:00:58.620Z,16.35
2019-02-02T22:03:27.528Z,17.17
2019-02-02T22:05:56.422Z,20.57
2019-02-02T22:08:25.648Z,17.35
2019-02-02T22:10:54.808Z,16.00
2019-02-02T22:13:23.699Z,13.70
2019-02-02T22:15:52.481Z,15.88
2019-02-02T22:18:21.938Z,17.73
2019-02-02T22:20:51.067Z,18.10
2019-02-02T22:23:20.002Z,17.52
2019-02-02T22:25:49.176Z,17.20
2019-02-02T22:28:18.249Z,17.23
2019-02-02T22:30:47.168Z,16.07
2019-02-02T22:33:16.660Z,18.48
2019-02-02T22:35:45.844Z,18.45
2019-02-02T22:38:14.860Z,15.63
2019-02-02T22:40:43.876Z,16.70
2019-02-02T22:43:12.857Z,16.97
2019-02-02T22:45:41.750Z,16.65
2019-02-02T22:48:11.160Z,17.65
2019-02-02T22:50:40.258Z,19.00
2019-02-02T22:53:09.219Z,21.52
2019-02-02T22:55:38.228Z,18.87
2019-02-02T22:58:06.980Z,17.32
2019-02-02T23:00:52.480Z,16.52
2019-02-02T23:03:27.497Z,16.67
2019-02-02T23:06:19.432Z,16.00
2019-02-02T23:09:16.069Z,18.07
2019-02-02T23:12:05.158Z,18.75
2019-02-02T23:14:56.660Z,18.17
2019-02-02T23:17:25.659Z,18.27
2019-02-02T23:19:54.577Z,17.57
2019-02-02T23:22:23.458Z,15.78
2019-02-02T23:24:52.423Z,16.97
2019-02-02T23:27:21.466Z,13.45
2019-02-02T23:29:50.321Z,17.15
2019-02-02T23:32:19.487Z,15.53
2019-02-02T23:34:48.620Z,17.37
2019-02-02T23:37:17.696Z,16.05
2019-02-02T23:39:46.700Z,16.82
2019-02-02T23:42:15.471Z,15.30
2019-02-02T23:44:44.290Z,17.42
2019-02-02T23:47:13.353Z,15.45
2019-02-02T23:49:42.260Z,15.88
2019-02-02T23:52:11.249Z,15.25
2019-02-02T23:54:40.386Z,13.38
2019-02-02T23:57:09.460Z,13.53
2019-02-02T23:59:38.345Z,12.30
